sensor_id;sensor_type;location;lat;lon;timestamp;pressure;altitude;pressure_sealevel;temperature;humidity
66430;BME280;53242;51.694;10.006;2024-02-23T00:00:48;96607.41;;;8.64;65.19
66430;BME280;53242;51.694;10.006;2024-02-23T00:03:10;96608.50;;;8.73;64.85
66430;BME280;53242;51.694;10.006;2024-02-23T00:05:33;96613.22;;;8.66;66.31
66430;BME280;53242;51.694;10.006;2024-02-23T00:07:55;96616.84;;;8.60;67.74
66430;BME280;53242;51.694;10.006;2024-02-23T00:10:17;96617.09;;;8.58;68.30
66430;BME280;53242;51.694;10.006;2024-02-23T00:12:40;96628.41;;;8.59;69.24
66430;BME280;53242;51.694;10.006;2024-02-23T00:15:03;96645.47;;;8.56;69.99
66430;BME280;53242;51.694;10.006;2024-02-23T00:17:25;96639.16;;;8.57;70.34
66430;BME280;53242;51.694;10.006;2024-02-23T00:19:47;96653.66;;;8.60;70.16
66430;BME280;53242;51.694;10.006;2024-02-23T00:22:11;96657.91;;;8.66;69.03
66430;BME280;53242;51.694;10.006;2024-02-23T00:24:33;96641.53;;;8.59;68.98
66430;BME280;53242;51.694;10.006;2024-02-23T00:26:56;96648.72;;;8.68;69.74
66430;BME280;53242;51.694;10.006;2024-02-23T00:29:18;96653.16;;;8.68;70.20
66430;BME280;53242;51.694;10.006;2024-02-23T00:31:40;96651.56;;;8.62;69.89
66430;BME280;53242;51.694;10.006;2024-02-23T00:34:03;96645.47;;;8.56;70.77
66430;BME280;53242;51.694;10.006;2024-02-23T00:36:25;96657.00;;;8.55;69.56
66430;BME280;53242;51.694;10.006;2024-02-23T00:38:48;96662.53;;;8.53;68.29
66430;BME280;53242;51.694;10.006;2024-02-23T00:41:10;96667.47;;;8.50;67.52
66430;BME280;53242;51.694;10.006;2024-02-23T00:43:39;96687.78;;;8.54;66.78
66430;BME280;53242;51.694;10.006;2024-02-23T00:46:02;96681.78;;;8.59;66.97
66430;BME280;53242;51.694;10.006;2024-02-23T00:48:24;96703.56;;;8.54;67.46
66430;BME280;53242;51.694;10.006;2024-02-23T00:50:47;96696.19;;;8.51;65.98
66430;BME280;53242;51.694;10.006;2024-02-23T00:53:09;96714.09;;;8.60;65.39
66430;BME280;53242;51.694;10.006;2024-02-23T00:55:32;96700.97;;;8.60;65.59
66430;BME280;53242;51.694;10.006;2024-02-23T00:57:54;96706.78;;;8.62;66.46
66430;BME280;53242;51.694;10.006;2024-02-23T01:00:17;96713.31;;;8.59;66.75
66430;BME280;53242;51.694;10.006;2024-02-23T01:02:40;96747.50;;;8.59;67.56
66430;BME280;53242;51.694;10.006;2024-02-23T01:05:02;96745.00;;;8.47;67.67
66430;BME280;53242;51.694;10.006;2024-02-23T01:07:25;96746.06;;;8.46;67.35
66430;BME280;53242;51.694;10.006;2024-02-23T01:09:47;96770.97;;;8.44;67.13
66430;BME280;53242;51.694;10.006;2024-02-23T01:12:10;96773.56;;;8.38;66.45
66430;BME280;53242;51.694;10.006;2024-02-23T01:14:32;96770.94;;;8.38;67.47
66430;BME280;53242;51.694;10.006;2024-02-23T01:16:54;96772.13;;;8.26;67.18
66430;BME280;53242;51.694;10.006;2024-02-23T01:19:17;96778.94;;;8.27;66.14
66430;BME280;53242;51.694;10.006;2024-02-23T01:21:40;96780.28;;;8.07;65.58
66430;BME280;53242;51.694;10.006;2024-02-23T01:24:03;96817.88;;;8.07;65.83
66430;BME280;53242;51.694;10.006;2024-02-23T01:26:26;96812.06;;;8.05;64.13
66430;BME280;53242;51.694;10.006;2024-02-23T01:28:49;96823.97;;;8.13;64.20
66430;BME280;53242;51.694;10.006;2024-02-23T01:31:12;96832.81;;;8.07;63.64
66430;BME280;53242;51.694;10.006;2024-02-23T01:33:35;96840.06;;;8.17;63.33
66430;BME280;53242;51.694;10.006;2024-02-23T01:35:58;96854.81;;;8.01;65.16
66430;BME280;53242;51.694;10.006;2024-02-23T01:38:21;96853.31;;;8.05;63.89
66430;BME280;53242;51.694;10.006;2024-02-23T01:40:44;96853.38;;;8.10;63.75
66430;BME280;53242;51.694;10.006;2024-02-23T01:43:06;96868.84;;;7.89;64.87
66430;BME280;53242;51.694;10.006;2024-02-23T01:45:29;96868.75;;;7.84;63.64
66430;BME280;53242;51.694;10.006;2024-02-23T01:47:53;96876.97;;;7.88;63.43
66430;BME280;53242;51.694;10.006;2024-02-23T01:50:15;96882.13;;;7.83;64.39
66430;BME280;53242;51.694;10.006;2024-02-23T01:52:38;96893.75;;;7.70;65.09
66430;BME280;53242;51.694;10.006;2024-02-23T01:55:01;96907.47;;;7.72;64.85
66430;BME280;53242;51.694;10.006;2024-02-23T01:57:23;96915.72;;;7.81;62.24
66430;BME280;53242;51.694;10.006;2024-02-23T01:59:46;96920.09;;;7.75;61.65
66430;BME280;53242;51.694;10.006;2024-02-23T02:02:09;96932.19;;;7.76;61.66
66430;BME280;53242;51.694;10.006;2024-02-23T02:04:31;96926.38;;;7.74;61.50
66430;BME280;53242;51.694;10.006;2024-02-23T02:06:54;96939.66;;;7.67;61.07
66430;BME280;53242;51.694;10.006;2024-02-23T02:09:17;96934.56;;;7.78;60.43
66430;BME280;53242;51.694;10.006;2024-02-23T02:11:48;96957.81;;;7.69;61.12
66430;BME280;53242;51.694;10.006;2024-02-23T02:14:11;96961.47;;;7.68;61.35
66430;BME280;53242;51.694;10.006;2024-02-23T02:16:33;96965.59;;;7.64;61.07
66430;BME280;53242;51.694;10.006;2024-02-23T02:18:56;96971.66;;;7.47;61.77
66430;BME280;53242;51.694;10.006;2024-02-23T02:21:18;96987.47;;;7.52;62.21
66430;BME280;53242;51.694;10.006;2024-02-23T02:23:45;96987.59;;;7.46;62.49
66430;BME280;53242;51.694;10.006;2024-02-23T02:26:08;96984.44;;;7.44;62.17
66430;BME280;53242;51.694;10.006;2024-02-23T02:28:31;96997.31;;;7.45;62.21
66430;BME280;53242;51.694;10.006;2024-02-23T02:30:54;97007.53;;;7.30;63.03
66430;BME280;53242;51.694;10.006;2024-02-23T02:33:16;97015.50;;;7.35;62.16
66430;BME280;53242;51.694;10.006;2024-02-23T02:35:39;97016.66;;;7.27;62.36
66430;BME280;53242;51.694;10.006;2024-02-23T02:38:01;97012.44;;;7.26;62.81
66430;BME280;53242;51.694;10.006;2024-02-23T02:40:23;97015.22;;;7.19;62.96
66430;BME280;53242;51.694;10.006;2024-02-23T02:42:46;97024.59;;;7.15;63.31
66430;BME280;53242;51.694;10.006;2024-02-23T02:45:08;97026.63;;;7.13;63.41
66430;BME280;53242;51.694;10.006;2024-02-23T02:47:31;97017.53;;;7.04;63.91
66430;BME280;53242;51.694;10.006;2024-02-23T02:49:53;97025.41;;;7.04;64.30
66430;BME280;53242;51.694;10.006;2024-02-23T02:52:15;97036.28;;;6.96;64.89
66430;BME280;53242;51.694;10.006;2024-02-23T02:54:38;97051.19;;;6.95;64.52
66430;BME280;53242;51.694;10.006;2024-02-23T02:57:00;97056.00;;;6.86;64.79
66430;BME280;53242;51.694;10.006;2024-02-23T02:59:23;97052.22;;;6.94;64.83
66430;BME280;53242;51.694;10.006;2024-02-23T03:01:46;97049.94;;;6.98;64.72
66430;BME280;53242;51.694;10.006;2024-02-23T03:04:09;97063.19;;;6.91;64.96
66430;BME280;53242;51.694;10.006;2024-02-23T03:06:31;97066.94;;;6.95;65.31
66430;BME280;53242;51.694;10.006;2024-02-23T03:08:54;97076.97;;;6.74;66.94
66430;BME280;53242;51.694;10.006;2024-02-23T03:11:16;97072.66;;;6.56;66.60
66430;BME280;53242;51.694;10.006;2024-02-23T03:13:38;97083.94;;;6.81;65.32
66430;BME280;53242;51.694;10.006;2024-02-23T03:16:01;97076.88;;;6.57;66.54
66430;BME280;53242;51.694;10.006;2024-02-23T03:18:23;97076.88;;;6.57;66.62
66430;BME280;53242;51.694;10.006;2024-02-23T03:20:46;97078.72;;;6.57;67.14
66430;BME280;53242;51.694;10.006;2024-02-23T03:23:08;97095.34;;;6.51;67.09
66430;BME280;53242;51.694;10.006;2024-02-23T03:25:30;97099.28;;;6.30;67.11
66430;BME280;53242;51.694;10.006;2024-02-23T03:27:53;97105.69;;;6.34;67.28
66430;BME280;53242;51.694;10.006;2024-02-23T03:30:15;97109.34;;;6.33;66.00
66430;BME280;53242;51.694;10.006;2024-02-23T03:32:38;97125.06;;;6.33;66.54
66430;BME280;53242;51.694;10.006;2024-02-23T03:35:06;97119.59;;;6.34;66.48
66430;BME280;53242;51.694;10.006;2024-02-23T03:37:29;97131.19;;;6.27;66.79
66430;BME280;53242;51.694;10.006;2024-02-23T03:39:52;97134.22;;;6.12;68.30
66430;BME280;53242;51.694;10.006;2024-02-23T03:42:14;97129.09;;;6.05;68.00
66430;BME280;53242;51.694;10.006;2024-02-23T03:44:36;97129.78;;;6.12;68.02
66430;BME280;53242;51.694;10.006;2024-02-23T03:46:59;97153.13;;;6.14;67.74
66430;BME280;53242;51.694;10.006;2024-02-23T03:49:21;97142.75;;;6.07;68.79
66430;BME280;53242;51.694;10.006;2024-02-23T03:51:44;97130.91;;;6.04;69.21
66430;BME280;53242;51.694;10.006;2024-02-23T03:54:06;97145.47;;;6.00;69.49
66430;BME280;53242;51.694;10.006;2024-02-23T03:56:29;97141.88;;;5.95;70.25
66430;BME280;53242;51.694;10.006;2024-02-23T03:58:51;97158.84;;;5.92;70.25
66430;BME280;53242;51.694;10.006;2024-02-23T04:01:13;97143.34;;;5.90;69.62
66430;BME280;53242;51.694;10.006;2024-02-23T04:03:36;97151.78;;;5.92;69.40
66430;BME280;53242;51.694;10.006;2024-02-23T04:05:58;97164.81;;;5.99;69.32
66430;BME280;53242;51.694;10.006;2024-02-23T04:08:21;97156.66;;;5.89;68.94
66430;BME280;53242;51.694;10.006;2024-02-23T04:10:43;97175.66;;;5.84;69.38
66430;BME280;53242;51.694;10.006;2024-02-23T04:13:05;97174.53;;;5.92;68.43
66430;BME280;53242;51.694;10.006;2024-02-23T04:15:28;97177.56;;;5.77;69.46
66430;BME280;53242;51.694;10.006;2024-02-23T04:17:50;97177.69;;;5.82;69.85
66430;BME280;53242;51.694;10.006;2024-02-23T04:20:12;97184.50;;;5.83;70.01
66430;BME280;53242;51.694;10.006;2024-02-23T04:22:36;97189.88;;;5.88;70.35
66430;BME280;53242;51.694;10.006;2024-02-23T04:24:59;97192.22;;;5.97;70.14
66430;BME280;53242;51.694;10.006;2024-02-23T04:27:21;97188.44;;;5.92;70.95
66430;BME280;53242;51.694;10.006;2024-02-23T04:29:43;97196.63;;;5.96;71.00
66430;BME280;53242;51.694;10.006;2024-02-23T04:32:06;97201.25;;;6.01;71.10
66430;BME280;53242;51.694;10.006;2024-02-23T04:34:28;97208.00;;;6.08;71.04
66430;BME280;53242;51.694;10.006;2024-02-23T04:36:51;97204.22;;;6.04;71.57
66430;BME280;53242;51.694;10.006;2024-02-23T04:39:13;97205.88;;;6.17;71.49
66430;BME280;53242;51.694;10.006;2024-02-23T04:41:36;97215.19;;;6.13;71.40
66430;BME280;53242;51.694;10.006;2024-02-23T04:43:58;97220.13;;;6.21;71.52
66430;BME280;53242;51.694;10.006;2024-02-23T04:46:22;97218.97;;;6.17;71.99
66430;BME280;53242;51.694;10.006;2024-02-23T04:48:44;97225.09;;;6.11;72.46
66430;BME280;53242;51.694;10.006;2024-02-23T04:51:07;97233.66;;;6.18;72.53
66430;BME280;53242;51.694;10.006;2024-02-23T04:53:32;97225.53;;;6.08;73.25
66430;BME280;53242;51.694;10.006;2024-02-23T04:55:58;97233.59;;;6.06;72.35
66430;BME280;53242;51.694;10.006;2024-02-23T04:58:20;97233.28;;;5.96;71.40
66430;BME280;53242;51.694;10.006;2024-02-23T05:00:45;97237.59;;;6.09;70.87
66430;BME280;53242;51.694;10.006;2024-02-23T05:03:07;97246.13;;;6.04;69.99
66430;BME280;53242;51.694;10.006;2024-02-23T05:05:30;97234.34;;;5.95;69.31
66430;BME280;53242;51.694;10.006;2024-02-23T05:07:53;97234.09;;;5.97;68.41
66430;BME280;53242;51.694;10.006;2024-02-23T05:10:15;97243.38;;;5.99;69.13
66430;BME280;53242;51.694;10.006;2024-02-23T05:12:39;97245.44;;;5.90;69.27
66430;BME280;53242;51.694;10.006;2024-02-23T05:15:01;97248.06;;;5.90;68.99
66430;BME280;53242;51.694;10.006;2024-02-23T05:17:25;97242.91;;;5.84;68.92
66430;BME280;53242;51.694;10.006;2024-02-23T05:19:47;97254.03;;;5.79;69.78
66430;BME280;53242;51.694;10.006;2024-02-23T05:22:10;97246.19;;;5.79;69.39
66430;BME280;53242;51.694;10.006;2024-02-23T05:24:32;97251.41;;;5.79;69.24
66430;BME280;53242;51.694;10.006;2024-02-23T05:26:54;97250.63;;;5.79;69.01
66430;BME280;53242;51.694;10.006;2024-02-23T05:29:17;97260.00;;;5.68;68.64
66430;BME280;53242;51.694;10.006;2024-02-23T05:31:52;97266.56;;;5.77;68.50
66430;BME280;53242;51.694;10.006;2024-02-23T05:34:14;97266.91;;;5.81;68.75
66430;BME280;53242;51.694;10.006;2024-02-23T05:36:37;97260.88;;;5.80;68.44
66430;BME280;53242;51.694;10.006;2024-02-23T05:38:59;97271.78;;;5.77;68.84
66430;BME280;53242;51.694;10.006;2024-02-23T05:41:21;97278.16;;;5.63;67.86
66430;BME280;53242;51.694;10.006;2024-02-23T05:43:44;97278.69;;;5.71;68.18
66430;BME280;53242;51.694;10.006;2024-02-23T05:46:06;97282.59;;;5.62;68.31
66430;BME280;53242;51.694;10.006;2024-02-23T05:48:29;97282.13;;;5.72;68.03
66430;BME280;53242;51.694;10.006;2024-02-23T05:50:51;97290.38;;;5.69;67.76
66430;BME280;53242;51.694;10.006;2024-02-23T05:53:14;97299.31;;;5.61;67.85
66430;BME280;53242;51.694;10.006;2024-02-23T05:55:37;97300.28;;;5.67;68.06
66430;BME280;53242;51.694;10.006;2024-02-23T05:57:59;97301.06;;;5.67;67.93
66430;BME280;53242;51.694;10.006;2024-02-23T06:00:22;97304.06;;;5.71;68.13
66430;BME280;53242;51.694;10.006;2024-02-23T06:02:45;97308.06;;;5.73;67.57
66430;BME280;53242;51.694;10.006;2024-02-23T06:05:07;97314.94;;;5.68;67.55
66430;BME280;53242;51.694;10.006;2024-02-23T06:07:29;97308.84;;;5.74;67.53
66430;BME280;53242;51.694;10.006;2024-02-23T06:09:52;97318.59;;;5.85;66.56
66430;BME280;53242;51.694;10.006;2024-02-23T06:12:14;97324.56;;;5.74;67.13
66430;BME280;53242;51.694;10.006;2024-02-23T06:14:37;97321.66;;;5.82;66.68
66430;BME280;53242;51.694;10.006;2024-02-23T06:16:59;97323.53;;;5.75;65.84
66430;BME280;53242;51.694;10.006;2024-02-23T06:19:21;97324.28;;;5.82;66.19
66430;BME280;53242;51.694;10.006;2024-02-23T06:21:47;97329.38;;;5.77;65.72
66430;BME280;53242;51.694;10.006;2024-02-23T06:24:10;97337.41;;;5.75;65.49
66430;BME280;53242;51.694;10.006;2024-02-23T06:26:32;97332.25;;;5.69;65.75
66430;BME280;53242;51.694;10.006;2024-02-23T06:28:55;97343.72;;;5.68;65.84
66430;BME280;53242;51.694;10.006;2024-02-23T06:31:17;97336.03;;;5.73;65.84
66430;BME280;53242;51.694;10.006;2024-02-23T06:33:39;97343.09;;;5.72;65.71
66430;BME280;53242;51.694;10.006;2024-02-23T06:36:04;97349.72;;;5.75;66.54
66430;BME280;53242;51.694;10.006;2024-02-23T06:38:27;97355.75;;;5.75;65.98
66430;BME280;53242;51.694;10.006;2024-02-23T06:40:49;97344.03;;;5.78;65.37
66430;BME280;53242;51.694;10.006;2024-02-23T06:43:11;97345.78;;;5.84;65.94
66430;BME280;53242;51.694;10.006;2024-02-23T06:45:34;97350.25;;;5.84;66.70
66430;BME280;53242;51.694;10.006;2024-02-23T06:47:56;97354.50;;;5.78;67.14
66430;BME280;53242;51.694;10.006;2024-02-23T06:50:19;97352.34;;;5.93;66.99
66430;BME280;53242;51.694;10.006;2024-02-23T06:52:41;97365.19;;;6.02;67.08
66430;BME280;53242;51.694;10.006;2024-02-23T06:55:04;97362.41;;;5.97;67.80
66430;BME280;53242;51.694;10.006;2024-02-23T06:57:27;97369.50;;;5.89;68.15
66430;BME280;53242;51.694;10.006;2024-02-23T06:59:49;97372.56;;;5.86;68.40
66430;BME280;53242;51.694;10.006;2024-02-23T07:02:11;97380.94;;;5.95;68.01
66430;BME280;53242;51.694;10.006;2024-02-23T07:04:34;97375.91;;;5.93;68.41
66430;BME280;53242;51.694;10.006;2024-02-23T07:06:56;97393.06;;;5.89;69.05
66430;BME280;53242;51.694;10.006;2024-02-23T07:09:19;97392.81;;;5.98;69.12
66430;BME280;53242;51.694;10.006;2024-02-23T07:11:41;97388.16;;;6.00;68.60
66430;BME280;53242;51.694;10.006;2024-02-23T07:14:05;97392.16;;;6.02;68.17
66430;BME280;53242;51.694;10.006;2024-02-23T07:16:28;97403.69;;;5.95;69.14
66430;BME280;53242;51.694;10.006;2024-02-23T07:18:50;97408.56;;;5.91;68.75
66430;BME280;53242;51.694;10.006;2024-02-23T07:21:13;97405.16;;;5.90;68.95
66430;BME280;53242;51.694;10.006;2024-02-23T07:23:35;97408.94;;;5.95;69.24
66430;BME280;53242;51.694;10.006;2024-02-23T07:25:58;97412.31;;;6.02;69.01
66430;BME280;53242;51.694;10.006;2024-02-23T07:28:20;97420.97;;;6.02;69.32
66430;BME280;53242;51.694;10.006;2024-02-23T07:30:44;97430.22;;;6.05;69.77
66430;BME280;53242;51.694;10.006;2024-02-23T07:33:07;97427.25;;;5.95;69.75
66430;BME280;53242;51.694;10.006;2024-02-23T07:35:29;97435.06;;;6.01;69.78
66430;BME280;53242;51.694;10.006;2024-02-23T07:37:52;97437.31;;;5.98;69.50
66430;BME280;53242;51.694;10.006;2024-02-23T07:40:14;97438.91;;;6.05;69.53
66430;BME280;53242;51.694;10.006;2024-02-23T07:42:36;97441.28;;;6.07;69.47
66430;BME280;53242;51.694;10.006;2024-02-23T07:45:01;97436.78;;;6.14;69.84
66430;BME280;53242;51.694;10.006;2024-02-23T07:47:24;97449.06;;;6.14;69.79
66430;BME280;53242;51.694;10.006;2024-02-23T07:49:46;97444.47;;;6.09;69.81
66430;BME280;53242;51.694;10.006;2024-02-23T07:52:08;97441.00;;;6.15;70.13
66430;BME280;53242;51.694;10.006;2024-02-23T07:54:31;97454.91;;;6.16;70.13
66430;BME280;53242;51.694;10.006;2024-02-23T07:56:53;97454.53;;;6.12;70.20
66430;BME280;53242;51.694;10.006;2024-02-23T07:59:15;97455.06;;;6.21;69.93
66430;BME280;53242;51.694;10.006;2024-02-23T08:01:38;97457.53;;;6.34;69.24
66430;BME280;53242;51.694;10.006;2024-02-23T08:04:02;97456.94;;;6.32;69.20
66430;BME280;53242;51.694;10.006;2024-02-23T08:06:25;97462.00;;;6.34;69.28
66430;BME280;53242;51.694;10.006;2024-02-23T08:08:48;97469.69;;;6.29;68.55
66430;BME280;53242;51.694;10.006;2024-02-23T08:11:10;97474.56;;;6.25;69.05
66430;BME280;53242;51.694;10.006;2024-02-23T08:13:32;97472.31;;;6.29;69.54
66430;BME280;53242;51.694;10.006;2024-02-23T08:15:55;97474.78;;;6.42;69.20
66430;BME280;53242;51.694;10.006;2024-02-23T08:18:17;97467.94;;;6.41;69.09
66430;BME280;53242;51.694;10.006;2024-02-23T08:20:40;97467.22;;;6.34;68.71
66430;BME280;53242;51.694;10.006;2024-02-23T08:23:02;97469.19;;;6.38;69.05
66430;BME280;53242;51.694;10.006;2024-02-23T08:25:24;97464.25;;;6.49;69.00
66430;BME280;53242;51.694;10.006;2024-02-23T08:27:50;97470.16;;;6.44;69.17
66430;BME280;53242;51.694;10.006;2024-02-23T08:30:13;97470.88;;;6.70;67.67
66430;BME280;53242;51.694;10.006;2024-02-23T08:32:36;97466.78;;;6.74;66.71
66430;BME280;53242;51.694;10.006;2024-02-23T08:34:58;97467.22;;;6.71;65.85
66430;BME280;53242;51.694;10.006;2024-02-23T08:37:24;97469.34;;;6.81;65.83
66430;BME280;53242;51.694;10.006;2024-02-23T08:39:47;97471.66;;;6.89;64.51
66430;BME280;53242;51.694;10.006;2024-02-23T08:42:09;97470.84;;;6.88;64.03
66430;BME280;53242;51.694;10.006;2024-02-23T08:44:31;97472.69;;;6.88;63.47
66430;BME280;53242;51.694;10.006;2024-02-23T08:46:54;97476.75;;;6.84;63.32
66430;BME280;53242;51.694;10.006;2024-02-23T08:49:16;97475.16;;;6.83;62.85
66430;BME280;53242;51.694;10.006;2024-02-23T08:51:39;97490.16;;;6.94;62.59
66430;BME280;53242;51.694;10.006;2024-02-23T08:54:01;97504.25;;;7.12;62.98
66430;BME280;53242;51.694;10.006;2024-02-23T08:56:26;97493.41;;;7.08;62.53
66430;BME280;53242;51.694;10.006;2024-02-23T08:58:49;97505.19;;;7.17;63.19
66430;BME280;53242;51.694;10.006;2024-02-23T09:01:11;97508.50;;;7.13;62.35
66430;BME280;53242;51.694;10.006;2024-02-23T09:03:34;97514.38;;;7.27;61.54
66430;BME280;53242;51.694;10.006;2024-02-23T09:05:56;97509.66;;;7.47;61.81
66430;BME280;53242;51.694;10.006;2024-02-23T09:08:18;97513.59;;;7.38;60.97
66430;BME280;53242;51.694;10.006;2024-02-23T09:10:41;97515.59;;;7.54;61.22
66430;BME280;53242;51.694;10.006;2024-02-23T09:13:03;97508.28;;;7.45;61.62
66430;BME280;53242;51.694;10.006;2024-02-23T09:15:26;97521.13;;;7.65;61.44
66430;BME280;53242;51.694;10.006;2024-02-23T09:17:48;97525.28;;;7.84;60.63
66430;BME280;53242;51.694;10.006;2024-02-23T09:20:11;97511.03;;;7.92;60.08
66430;BME280;53242;51.694;10.006;2024-02-23T09:22:33;97503.38;;;7.90;59.51
66430;BME280;53242;51.694;10.006;2024-02-23T09:24:56;97516.75;;;8.01;58.94
66430;BME280;53242;51.694;10.006;2024-02-23T09:27:21;97514.34;;;7.99;59.07
66430;BME280;53242;51.694;10.006;2024-02-23T09:29:44;97517.56;;;8.25;58.39
66430;BME280;53242;51.694;10.006;2024-02-23T09:32:06;97517.00;;;8.35;58.64
66430;BME280;53242;51.694;10.006;2024-02-23T09:34:29;97510.38;;;8.32;58.75
66430;BME280;53242;51.694;10.006;2024-02-23T09:36:51;97504.78;;;8.29;58.81
66430;BME280;53242;51.694;10.006;2024-02-23T09:39:14;97512.31;;;8.37;57.60
66430;BME280;53242;51.694;10.006;2024-02-23T09:41:38;97498.84;;;8.33;57.67
66430;BME280;53242;51.694;10.006;2024-02-23T09:44:01;97495.78;;;8.48;57.83
66430;BME280;53242;51.694;10.006;2024-02-23T09:46:25;97496.88;;;8.76;57.98
66430;BME280;53242;51.694;10.006;2024-02-23T09:48:48;97488.88;;;8.83;57.56
66430;BME280;53242;51.694;10.006;2024-02-23T09:51:12;97496.38;;;9.03;57.36
66430;BME280;53242;51.694;10.006;2024-02-23T09:53:37;97489.25;;;9.03;56.85
66430;BME280;53242;51.694;10.006;2024-02-23T09:55:59;97488.91;;;8.71;56.70
66430;BME280;53242;51.694;10.006;2024-02-23T09:58:23;97481.03;;;9.00;56.78
66430;BME280;53242;51.694;10.006;2024-02-23T10:00:46;97482.25;;;8.68;56.89
66430;BME280;53242;51.694;10.006;2024-02-23T10:03:08;97483.13;;;8.86;57.29
66430;BME280;53242;51.694;10.006;2024-02-23T10:05:31;97477.19;;;8.91;57.84
66430;BME280;53242;51.694;10.006;2024-02-23T10:07:54;97478.25;;;8.78;57.21
66430;BME280;53242;51.694;10.006;2024-02-23T10:10:24;97482.72;;;8.65;56.27
66430;BME280;53242;51.694;10.006;2024-02-23T10:12:49;97473.97;;;8.88;57.25
66430;BME280;53242;51.694;10.006;2024-02-23T10:15:11;97477.56;;;8.82;57.32
66430;BME280;53242;51.694;10.006;2024-02-23T10:17:34;97481.78;;;8.71;56.51
66430;BME280;53242;51.694;10.006;2024-02-23T10:19:56;97474.59;;;8.79;56.42
66430;BME280;53242;51.694;10.006;2024-02-23T10:22:21;97472.63;;;8.74;56.39
66430;BME280;53242;51.694;10.006;2024-02-23T10:24:47;97484.88;;;8.80;56.74
66430;BME280;53242;51.694;10.006;2024-02-23T10:27:09;97482.81;;;8.70;55.75
66430;BME280;53242;51.694;10.006;2024-02-23T10:29:32;97491.06;;;8.62;54.42
66430;BME280;53242;51.694;10.006;2024-02-23T10:31:56;97486.94;;;8.66;55.05
66430;BME280;53242;51.694;10.006;2024-02-23T10:34:19;97475.38;;;8.79;55.11
66430;BME280;53242;51.694;10.006;2024-02-23T10:36:42;97478.00;;;8.79;54.62
66430;BME280;53242;51.694;10.006;2024-02-23T10:39:05;97492.69;;;9.04;55.54
66430;BME280;53242;51.694;10.006;2024-02-23T10:41:34;97490.81;;;8.87;54.89
66430;BME280;53242;51.694;10.006;2024-02-23T10:43:56;97495.00;;;9.00;56.08
66430;BME280;53242;51.694;10.006;2024-02-23T10:46:21;97503.50;;;8.79;54.40
66430;BME280;53242;51.694;10.006;2024-02-23T10:48:44;97506.38;;;8.77;54.99
66430;BME280;53242;51.694;10.006;2024-02-23T10:51:07;97497.78;;;9.23;55.39
66430;BME280;53242;51.694;10.006;2024-02-23T10:53:30;97490.63;;;9.35;55.92
66430;BME280;53242;51.694;10.006;2024-02-23T10:55:56;97511.19;;;9.50;54.75
66430;BME280;53242;51.694;10.006;2024-02-23T10:58:22;97517.28;;;9.67;55.13
66430;BME280;53242;51.694;10.006;2024-02-23T11:00:44;97502.84;;;9.41;54.61
66430;BME280;53242;51.694;10.006;2024-02-23T11:03:08;97504.94;;;9.39;54.14
66430;BME280;53242;51.694;10.006;2024-02-23T11:05:31;97507.41;;;9.17;54.63
66430;BME280;53242;51.694;10.006;2024-02-23T11:07:57;97499.88;;;9.37;54.40
66430;BME280;53242;51.694;10.006;2024-02-23T11:10:22;97494.97;;;9.58;54.92
66430;BME280;53242;51.694;10.006;2024-02-23T11:12:57;97501.41;;;9.62;54.39
66430;BME280;53242;51.694;10.006;2024-02-23T11:15:28;97500.56;;;9.62;54.65
66430;BME280;53242;51.694;10.006;2024-02-23T11:17:50;97503.47;;;9.60;55.35
66430;BME280;53242;51.694;10.006;2024-02-23T11:20:14;97501.47;;;9.67;55.10
66430;BME280;53242;51.694;10.006;2024-02-23T11:22:37;97487.53;;;9.38;53.58
66430;BME280;53242;51.694;10.006;2024-02-23T11:25:09;97501.97;;;8.95;54.16
66430;BME280;53242;51.694;10.006;2024-02-23T11:27:37;97495.84;;;9.18;55.29
66430;BME280;53242;51.694;10.006;2024-02-23T11:30:05;97497.31;;;9.26;55.09
66430;BME280;53242;51.694;10.006;2024-02-23T11:32:41;97503.75;;;9.18;55.44
66430;BME280;53242;51.694;10.006;2024-02-23T11:35:06;97493.06;;;9.25;55.22
66430;BME280;53242;51.694;10.006;2024-02-23T11:37:28;97494.03;;;9.18;55.12
66430;BME280;53242;51.694;10.006;2024-02-23T11:39:55;97504.56;;;9.18;54.69
66430;BME280;53242;51.694;10.006;2024-02-23T11:42:17;97510.50;;;9.43;54.84
66430;BME280;53242;51.694;10.006;2024-02-23T11:44:40;97508.44;;;9.45;55.25
66430;BME280;53242;51.694;10.006;2024-02-23T11:47:03;97505.06;;;9.32;53.57
66430;BME280;53242;51.694;10.006;2024-02-23T11:49:29;97515.38;;;9.80;54.25
66430;BME280;53242;51.694;10.006;2024-02-23T11:51:53;97519.53;;;9.93;53.73
66430;BME280;53242;51.694;10.006;2024-02-23T11:54:15;97517.47;;;9.95;53.12
66430;BME280;53242;51.694;10.006;2024-02-23T11:56:38;97523.84;;;9.99;52.67
66430;BME280;53242;51.694;10.006;2024-02-23T11:59:02;97530.41;;;9.96;52.78
66430;BME280;53242;51.694;10.006;2024-02-23T12:01:25;97521.53;;;10.19;53.25
66430;BME280;53242;51.694;10.006;2024-02-23T12:03:47;97520.47;;;10.55;53.68
66430;BME280;53242;51.694;10.006;2024-02-23T12:06:10;97518.13;;;10.36;52.08
66430;BME280;53242;51.694;10.006;2024-02-23T12:08:32;97521.31;;;10.38;53.31
66430;BME280;53242;51.694;10.006;2024-02-23T12:11:00;97520.66;;;10.14;53.78
66430;BME280;53242;51.694;10.006;2024-02-23T12:13:22;97528.50;;;10.26;53.24
66430;BME280;53242;51.694;10.006;2024-02-23T12:15:45;97522.66;;;9.90;52.67
66430;BME280;53242;51.694;10.006;2024-02-23T12:18:10;97520.50;;;10.20;53.30
66430;BME280;53242;51.694;10.006;2024-02-23T12:20:33;97527.84;;;9.84;52.72
66430;BME280;53242;51.694;10.006;2024-02-23T12:22:56;97519.00;;;10.08;52.73
66430;BME280;53242;51.694;10.006;2024-02-23T12:25:18;97514.50;;;10.25;52.90
66430;BME280;53242;51.694;10.006;2024-02-23T12:27:41;97517.94;;;10.26;53.62
66430;BME280;53242;51.694;10.006;2024-02-23T12:30:04;97510.41;;;10.17;52.76
66430;BME280;53242;51.694;10.006;2024-02-23T12:32:26;97503.16;;;10.25;52.34
66430;BME280;53242;51.694;10.006;2024-02-23T12:34:49;97503.19;;;10.08;52.15
66430;BME280;53242;51.694;10.006;2024-02-23T12:37:14;97497.97;;;10.13;52.67